createdAt,value
2022-08-07T00:00:28.486Z,11.70
2022-08-07T00:03:00.295Z,11.70
2022-08-07T00:05:33.339Z,11.70
2022-08-07T00:08:07.837Z,11.70
2022-08-07T00:10:48.315Z,11.70
2022-08-07T00:13:26.913Z,11.60
2022-08-07T00:15:56.928Z,11.50
2022-08-07T00:18:28.278Z,11.50
2022-08-07T00:21:03.183Z,11.40
2022-08-07T00:23:42.163Z,11.40
2022-08-07T00:26:31.445Z,11.30
2022-08-07T00:29:02.957Z,11.30
2022-08-07T00:31:37.973Z,11.40
2022-08-07T00:34:10.773Z,11.40
2022-08-07T00:36:42.985Z,11.40
2022-08-07T00:39:16.579Z,11.40
2022-08-07T00:41:53.777Z,11.30
2022-08-07T00:44:30.559Z,11.20
2022-08-07T00:47:02.096Z,11.20
2022-08-07T00:50:21.132Z,11.30
2022-08-07T00:52:21.554Z,11.20
2022-08-07T00:54:53.628Z,11.10
2022-08-07T00:57:25.119Z,11.10
2022-08-07T00:59:54.669Z,11.20
2022-08-07T01:02:28.884Z,11.10
2022-08-07T01:05:00.166Z,11.10
2022-08-07T01:07:31.667Z,11.10
2022-08-07T01:10:04.880Z,11.20
2022-08-07T01:12:36.584Z,11.20
2022-08-07T01:15:06.737Z,11.10
2022-08-07T01:17:41.707Z,11.00
2022-08-07T01:20:17.196Z,10.90
2022-08-07T01:23:00.789Z,10.90
2022-08-07T01:25:55.419Z,10.80
2022-08-07T01:28:26.464Z,10.80
2022-08-07T01:30:58.595Z,10.80
2022-08-07T01:33:30.118Z,10.70
2022-08-07T01:36:18.043Z,10.60
2022-08-07T01:38:50.024Z,10.60
2022-08-07T01:41:26.225Z,10.50
2022-08-07T01:43:58.617Z,10.60
2022-08-07T01:46:28.655Z,10.60
2022-08-07T01:49:03.151Z,10.50
2022-08-07T01:52:01.153Z,10.40
2022-08-07T01:54:33.052Z,10.40
2022-08-07T01:57:24.517Z,10.40
2022-08-07T01:59:57.951Z,10.40
2022-08-07T02:03:18.298Z,10.40
2022-08-07T02:05:43.470Z,10.50
2022-08-07T02:08:27.515Z,10.40
2022-08-07T02:10:59.866Z,10.40
2022-08-07T02:13:57.177Z,10.60
2022-08-07T02:16:29.965Z,10.60
2022-08-07T02:20:04.321Z,10.50
2022-08-07T02:22:00.067Z,10.40
2022-08-07T02:24:32.305Z,10.40
2022-08-07T02:27:05.894Z,10.30
2022-08-07T02:29:43.523Z,10.30
2022-08-07T02:32:23.393Z,10.30
2022-08-07T02:34:57.954Z,10.30
2022-08-07T02:37:34.082Z,10.20
2022-08-07T02:40:33.244Z,10.20
2022-08-07T02:43:08.024Z,10.10
2022-08-07T02:46:01.601Z,10.00
2022-08-07T02:48:34.494Z,10.00
2022-08-07T02:51:28.913Z,10.00
2022-08-07T02:54:03.754Z,10.00
2022-08-07T02:56:35.510Z,10.00
2022-08-07T02:59:12.766Z,10.00
2022-08-07T03:01:42.830Z,10.10
2022-08-07T03:04:18.126Z,10.00
2022-08-07T03:06:49.435Z,10.10
2022-08-07T03:09:43.824Z,10.20
2022-08-07T03:12:21.725Z,10.20
2022-08-07T03:15:09.165Z,10.10
2022-08-07T03:17:54.013Z,10.10
2022-08-07T03:20:25.603Z,10.10
2022-08-07T03:22:56.935Z,10.00
2022-08-07T03:25:32.441Z,10.00
2022-08-07T03:28:38.173Z,10.00
2022-08-07T03:31:24.825Z,9.90
2022-08-07T03:34:01.213Z,9.90
2022-08-07T03:36:36.038Z,9.90
2022-08-07T03:39:07.668Z,9.90
2022-08-07T03:41:42.142Z,9.90
2022-08-07T03:44:21.807Z,9.90
2022-08-07T03:47:13.078Z,9.80
2022-08-07T03:49:48.076Z,9.70
2022-08-07T03:52:29.193Z,9.70
2022-08-07T03:55:07.061Z,9.70
2022-08-07T03:58:34.194Z,9.80
2022-08-07T04:00:36.489Z,9.80
2022-08-07T04:03:07.595Z,9.80
2022-08-07T04:05:45.621Z,9.80
2022-08-07T04:08:21.076Z,9.80
2022-08-07T04:10:54.831Z,9.80
2022-08-07T04:14:32.912Z,9.70
2022-08-07T04:16:33.707Z,9.70
2022-08-07T04:19:14.708Z,9.80
2022-08-07T04:21:47.925Z,9.90
2022-08-07T04:24:34.076Z,9.90
2022-08-07T04:27:15.148Z,9.90
2022-08-07T04:30:02.187Z,9.90
2022-08-07T04:32:58.386Z,9.90
2022-08-07T04:35:35.267Z,9.90
2022-08-07T04:38:09.283Z,9.90
2022-08-07T04:40:52.852Z,9.90
2022-08-07T04:44:12.497Z,9.90
2022-08-07T04:47:07.702Z,9.90
2022-08-07T04:49:58.173Z,10.00
2022-08-07T04:52:46.952Z,10.20
2022-08-07T04:58:11.902Z,10.20
2022-08-07T04:58:49.611Z,10.30
2022-08-07T05:01:22.025Z,10.40
2022-08-07T05:04:12.372Z,10.60
2022-08-07T05:06:55.050Z,10.70
2022-08-07T05:09:45.923Z,10.60
2022-08-07T05:12:30.444Z,10.70
2022-08-07T05:15:21.617Z,10.70
2022-08-07T05:18:08.681Z,10.80
2022-08-07T05:20:42.823Z,10.90
2022-08-07T05:23:17.952Z,11.20
2022-08-07T05:26:10.954Z,11.20
2022-08-07T05:28:48.551Z,11.30
2022-08-07T05:31:23.675Z,11.50
2022-08-07T05:34:04.373Z,11.60
2022-08-07T05:36:39.326Z,11.80
2022-08-07T05:40:06.030Z,12.00
2022-08-07T05:42:12.425Z,12.20
2022-08-07T05:44:52.884Z,12.40
2022-08-07T05:48:01.937Z,12.60
2022-08-07T05:50:31.943Z,12.80
2022-08-07T05:53:02.661Z,13.10
2022-08-07T05:56:03.851Z,13.20
2022-08-07T05:58:35.982Z,13.40
2022-08-07T06:01:10.485Z,13.60
2022-08-07T06:03:53.234Z,13.80
2022-08-07T06:06:29.854Z,14.00
2022-08-07T06:09:04.566Z,14.20
2022-08-07T06:11:35.129Z,14.40
2022-08-07T06:14:13.067Z,14.50
2022-08-07T06:16:56.205Z,14.80
2022-08-07T06:19:58.112Z,15.10
2022-08-07T06:22:27.146Z,15.20
2022-08-07T06:25:34.781Z,15.50
2022-08-07T06:28:07.502Z,15.60
2022-08-07T06:30:45.412Z,15.80
2022-08-07T06:33:20.458Z,15.90
2022-08-07T06:36:11.884Z,15.90
2022-08-07T06:38:59.390Z,16.00
2022-08-07T06:42:01.616Z,16.20
2022-08-07T06:44:54.522Z,16.30
2022-08-07T06:47:27.244Z,16.50
2022-08-07T06:49:59.057Z,16.70
2022-08-07T06:52:38.599Z,16.80
2022-08-07T06:55:32.082Z,17.00
2022-08-07T06:58:11.032Z,17.10
2022-08-07T07:00:59.752Z,17.20
2022-08-07T07:03:48.831Z,17.30
2022-08-07T07:06:26.531Z,17.40
2022-08-07T07:08:56.773Z,17.60
2022-08-07T07:12:09.932Z,17.70
2022-08-07T07:14:19.338Z,17.90
2022-08-07T07:16:54.631Z,18.10
2022-08-07T07:19:56.578Z,18.20
2022-08-07T07:22:36.835Z,18.20
2022-08-07T07:26:32.069Z,18.30
2022-08-07T07:28:29.505Z,18.40
2022-08-07T07:31:00.367Z,18.60
2022-08-07T07:33:32.177Z,18.70
2022-08-07T07:36:13.421Z,18.70
2022-08-07T07:38:47.640Z,19.00
2022-08-07T07:41:22.344Z,19.20
2022-08-07T07:44:17.402Z,19.30
2022-08-07T07:47:04.331Z,19.40
2022-08-07T07:50:33.398Z,19.40
2022-08-07T07:52:35.752Z,19.50
2022-08-07T07:55:06.217Z,19.70
2022-08-07T07:57:52.777Z,19.80
2022-08-07T08:00:31.457Z,19.90
2022-08-07T08:03:16.686Z,20.10
2022-08-07T08:06:02.425Z,20.20
2022-08-07T08:08:36.842Z,20.30
2022-08-07T08:11:16.255Z,20.40
2022-08-07T08:13:54.311Z,20.60
2022-08-07T08:16:35.046Z,20.70
2022-08-07T08:19:17.298Z,20.90
2022-08-07T08:22:07.831Z,21.00
2022-08-07T08:25:18.123Z,21.00
2022-08-07T08:27:56.656Z,21.20
2022-08-07T08:30:34.643Z,21.30
2022-08-07T08:33:10.405Z,21.40
2022-08-07T08:35:50.616Z,21.50
2022-08-07T08:38:25.874Z,21.60
2022-08-07T08:41:10.660Z,21.70
2022-08-07T08:43:59.133Z,21.80
2022-08-07T08:46:39.245Z,21.80
2022-08-07T08:49:18.776Z,21.90
2022-08-07T08:52:14.208Z,22.00
2022-08-07T08:54:50.852Z,22.30
2022-08-07T08:57:33.983Z,22.30
2022-08-07T09:00:08.547Z,22.50
2022-08-07T09:02:46.252Z,22.40
2022-08-07T09:05:39.161Z,22.30
2022-08-07T09:08:28.574Z,22.40
2022-08-07T09:11:08.309Z,22.60
2022-08-07T09:13:47.714Z,22.70
2022-08-07T09:16:30.156Z,22.80
2022-08-07T09:19:51.867Z,22.90
2022-08-07T09:24:28.851Z,22.80
2022-08-07T09:25:25.979Z,22.80
2022-08-07T09:28:03.313Z,23.00
2022-08-07T09:30:50.620Z,23.00
2022-08-07T09:33:52.669Z,23.20
2022-08-07T09:36:35.862Z,23.80
2022-08-07T09:39:54.901Z,24.40
2022-08-07T09:42:23.008Z,25.10
2022-08-07T09:47:24.705Z,25.90
2022-08-07T09:48:05.202Z,26.40
2022-08-07T09:50:48.349Z,26.80
2022-08-07T09:53:26.606Z,27.40
2022-08-07T09:56:52.088Z,27.70
2022-08-07T10:00:01.372Z,28.10
2022-08-07T10:04:05.847Z,28.60
2022-08-07T10:06:24.881Z,27.40
2022-08-07T10:09:34.136Z,27.30
2022-08-07T10:12:21.514Z,28.00
2022-08-07T10:15:27.259Z,27.80
2022-08-07T10:18:42.317Z,27.20
2022-08-07T10:22:12.049Z,27.50
2022-08-07T10:24:38.098Z,27.70
2022-08-07T10:27:26.774Z,28.40
2022-08-07T10:30:12.421Z,29.10
2022-08-07T10:33:03.128Z,28.70
2022-08-07T10:35:55.229Z,28.50
2022-08-07T10:38:48.348Z,28.50
2022-08-07T10:41:47.473Z,29.00
2022-08-07T10:44:38.398Z,29.40
2022-08-07T10:47:17.263Z,29.60
2022-08-07T10:49:52.011Z,30.30
2022-08-07T10:52:31.836Z,30.70
2022-08-07T10:55:27.040Z,30.00
2022-08-07T10:58:36.469Z,29.90
2022-08-07T11:01:35.796Z,29.30
2022-08-07T11:04:31.925Z,29.70
2022-08-07T11:07:14.726Z,29.30
2022-08-07T11:10:07.077Z,29.50
2022-08-07T11:12:45.644Z,30.00
2022-08-07T11:15:31.638Z,29.90
2022-08-07T11:18:09.612Z,30.10
2022-08-07T11:20:51.177Z,31.00
2022-08-07T11:23:30.920Z,30.90
2022-08-07T11:26:15.371Z,31.60
2022-08-07T11:28:55.179Z,31.30
2022-08-07T11:31:40.566Z,31.00
2022-08-07T11:34:21.556Z,31.00
2022-08-07T11:37:03.248Z,31.20
2022-08-07T11:39:59.180Z,31.00
2022-08-07T11:42:40.658Z,31.40
2022-08-07T11:45:23.734Z,31.50
2022-08-07T11:48:37.768Z,31.00
2022-08-07T11:51:41.770Z,31.80
2022-08-07T11:54:25.859Z,31.50
2022-08-07T11:57:14.252Z,31.30
2022-08-07T12:00:18.981Z,31.90
2022-08-07T12:03:44.667Z,32.00
2022-08-07T12:06:39.477Z,33.10
2022-08-07T12:10:06.870Z,34.00
2022-08-07T12:13:18.676Z,33.90
2022-08-07T12:16:13.074Z,32.30
2022-08-07T12:19:14.645Z,32.20
2022-08-07T12:22:39.024Z,33.00
2022-08-07T12:25:08.107Z,33.80
2022-08-07T12:28:08.690Z,34.40
2022-08-07T12:30:35.222Z,33.70
2022-08-07T12:33:23.504Z,34.30
2022-08-07T12:36:02.948Z,34.60
2022-08-07T12:38:42.520Z,34.50
2022-08-07T12:41:14.094Z,35.40
2022-08-07T12:44:04.005Z,35.70
2022-08-07T12:46:46.102Z,35.80
2022-08-07T12:49:48.903Z,34.40
2022-08-07T12:52:19.265Z,34.30
2022-08-07T12:55:03.523Z,34.60
2022-08-07T12:57:39.266Z,34.40
2022-08-07T13:00:35.858Z,33.80
2022-08-07T13:03:54.802Z,34.00
2022-08-07T13:06:29.038Z,35.20
2022-08-07T13:10:21.654Z,35.50
2022-08-07T13:12:10.118Z,35.00
2022-08-07T13:14:55.338Z,34.90
2022-08-07T13:17:39.901Z,35.80
2022-08-07T13:20:17.954Z,35.00
2022-08-07T13:22:55.910Z,33.70
2022-08-07T13:25:32.390Z,33.80
2022-08-07T13:28:12.921Z,33.30
2022-08-07T13:30:53.456Z,34.00
2022-08-07T13:34:31.488Z,35.20
2022-08-07T13:36:37.891Z,35.60
2022-08-07T13:39:28.550Z,36.20
2022-08-07T13:42:10.665Z,36.50
2022-08-07T13:44:41.447Z,36.10
2022-08-07T13:47:15.830Z,36.80
2022-08-07T13:50:35.277Z,36.80
2022-08-07T13:52:47.043Z,36.80
2022-08-07T13:55:26.573Z,35.80
2022-08-07T13:58:27.662Z,34.50
2022-08-07T14:01:07.975Z,33.00
2022-08-07T14:04:07.078Z,32.90
2022-08-07T14:06:34.227Z,34.30
2022-08-07T14:09:05.035Z,34.70
2022-08-07T14:11:53.255Z,34.70
2022-08-07T14:14:32.975Z,35.40
2022-08-07T14:17:32.148Z,35.90
2022-08-07T14:20:42.442Z,35.90
2022-08-07T14:22:54.209Z,35.00
2022-08-07T14:25:39.479Z,35.60
2022-08-07T14:28:13.754Z,35.80
2022-08-07T14:30:51.929Z,35.10
2022-08-07T14:33:23.656Z,35.00
2022-08-07T14:35:57.394Z,34.90
2022-08-07T14:38:31.426Z,34.50
2022-08-07T14:41:04.840Z,34.50
2022-08-07T14:43:57.493Z,34.20
2022-08-07T14:46:32.016Z,33.80
2022-08-07T14:49:17.218Z,33.70
2022-08-07T14:54:43.732Z,33.40
2022-08-07T14:57:19.195Z,34.40
2022-08-07T15:00:04.473Z,35.80
2022-08-07T15:02:39.102Z,36.00
2022-08-07T15:08:00.115Z,37.20
2022-08-07T15:10:30.560Z,38.40
2022-08-07T15:13:06.356Z,38.40
2022-08-07T15:15:52.295Z,38.30
2022-08-07T15:21:58.772Z,37.30
2022-08-07T15:25:13.407Z,36.40
2022-08-07T15:27:10.093Z,37.00
2022-08-07T15:30:10.104Z,36.90
2022-08-07T15:32:38.953Z,37.60
2022-08-07T15:35:17.003Z,37.50
2022-08-07T15:38:18.193Z,37.10
2022-08-07T16:01:42.455Z,35.20
2022-08-07T16:04:15.734Z,34.90
2022-08-07T16:06:54.565Z,34.50
2022-08-07T16:09:42.322Z,35.20
2022-08-07T16:12:28.547Z,35.50
2022-08-07T16:15:55.556Z,35.40
2022-08-07T16:18:49.745Z,35.70
2022-08-07T16:22:02.204Z,35.40
2022-08-07T16:24:33.656Z,34.60
2022-08-07T16:27:18.691Z,34.40
2022-08-07T16:30:30.723Z,33.50
2022-08-07T16:34:01.374Z,33.00
2022-08-07T16:36:20.292Z,32.80
2022-08-07T16:39:21.070Z,33.10
2022-08-07T16:42:21.604Z,33.50
2022-08-07T16:46:21.425Z,34.20
2022-08-07T16:48:58.245Z,34.00
2022-08-07T16:51:57.611Z,34.00
2022-08-07T16:54:55.561Z,34.00
2022-08-07T16:58:02.478Z,34.70
2022-08-07T17:00:29.550Z,33.80
2022-08-07T17:03:18.906Z,33.40
2022-08-07T17:06:29.894Z,33.20
2022-08-07T17:09:14.104Z,32.30
2022-08-07T17:12:04.936Z,31.50
2022-08-07T17:14:52.180Z,31.60
2022-08-07T17:17:46.237Z,30.80
2022-08-07T17:20:30.109Z,30.50
2022-08-07T17:23:08.795Z,30.90
2022-08-07T17:25:57.741Z,31.70
2022-08-07T17:28:35.475Z,32.20
2022-08-07T17:31:16.302Z,32.60
2022-08-07T17:34:15.274Z,32.90
2022-08-07T17:36:58.078Z,32.20
2022-08-07T17:39:58.436Z,31.40
2022-08-07T17:42:59.155Z,30.40
2022-08-07T17:45:35.258Z,28.90
2022-08-07T17:48:13.039Z,28.40
2022-08-07T17:50:57.800Z,28.00
2022-08-07T17:54:01.011Z,27.30
2022-08-07T17:56:29.729Z,26.70
2022-08-07T17:59:16.836Z,26.30
2022-08-07T18:01:57.074Z,26.10
2022-08-07T18:04:34.735Z,25.80
2022-08-07T18:07:34.157Z,25.50
2022-08-07T18:10:32.312Z,25.40
2022-08-07T18:13:23.291Z,25.20
2022-08-07T18:16:06.841Z,24.90
2022-08-07T18:21:02.892Z,24.80
2022-08-07T18:21:55.232Z,24.70
2022-08-07T18:25:24.187Z,24.50
2022-08-07T18:28:36.046Z,24.50
2022-08-07T18:31:09.034Z,24.40
2022-08-07T18:34:35.740Z,24.40
2022-08-07T18:46:24.437Z,24.10
2022-08-07T18:57:30.168Z,23.60
2022-08-07T19:26:23.662Z,22.20
2022-08-07T19:44:58.858Z,21.50
2022-08-07T19:48:42.316Z,21.40
2022-08-07T19:52:31.895Z,21.20
2022-08-07T21:03:03.553Z,18.90
2022-08-07T21:05:50.826Z,18.90
2022-08-07T21:08:40.836Z,19.00
2022-08-07T21:11:40.192Z,18.90
2022-08-07T21:14:35.672Z,18.80
2022-08-07T21:18:03.204Z,18.70
2022-08-07T21:24:39.992Z,18.30
2022-08-07T21:27:54.013Z,18.40
2022-08-07T21:30:53.069Z,18.40
2022-08-07T21:33:52.625Z,18.40
2022-08-07T21:36:41.579Z,18.20
2022-08-07T21:39:47.346Z,18.30
2022-08-07T21:42:46.755Z,18.30
2022-08-07T21:46:08.185Z,18.30
2022-08-07T21:48:41.466Z,18.30
2022-08-07T21:51:54.820Z,18.40
2022-08-07T21:54:46.159Z,18.40
2022-08-07T21:57:39.375Z,18.30
2022-08-07T22:00:22.816Z,18.20
2022-08-07T22:03:03.602Z,18.10
2022-08-07T22:05:44.230Z,18.10
2022-08-07T22:08:18.932Z,18.00
2022-08-07T22:10:55.161Z,18.00
2022-08-07T22:13:51.056Z,18.00
2022-08-07T22:16:38.516Z,17.80
2022-08-07T22:19:16.182Z,17.80
2022-08-07T22:22:05.213Z,17.80
2022-08-07T22:24:48.487Z,17.80
2022-08-07T22:27:34.186Z,17.70
2022-08-07T22:30:17.879Z,17.80
2022-08-07T22:32:59.402Z,17.70
2022-08-07T22:35:35.530Z,17.70
2022-08-07T22:38:27.065Z,17.60
2022-08-07T22:41:03.025Z,17.70
2022-08-07T22:43:40.630Z,17.60
2022-08-07T22:47:03.687Z,17.50
2022-08-07T22:49:37.671Z,17.50
2022-08-07T22:52:36.902Z,17.30
2022-08-07T22:55:30.293Z,17.30
2022-08-07T22:58:15.183Z,17.20
2022-08-07T23:01:06.321Z,17.10
2022-08-07T23:03:57.362Z,17.10
2022-08-07T23:06:51.650Z,17.10
2022-08-07T23:10:06.296Z,17.10
2022-08-07T23:12:35.816Z,17.10
2022-08-07T23:16:04.471Z,17.00
2022-08-07T23:18:26.064Z,17.10
2022-08-07T23:21:16.341Z,17.10
2022-08-07T23:24:11.779Z,17.10
2022-08-07T23:27:01.232Z,17.00
2022-08-07T23:30:38.622Z,17.00
2022-08-07T23:34:34.210Z,17.00
2022-08-07T23:36:28.760Z,17.00
2022-08-07T23:39:08.420Z,16.90
2022-08-07T23:42:04.399Z,16.90
2022-08-07T23:44:53.762Z,16.80
2022-08-07T23:47:46.526Z,16.70
2022-08-07T23:50:40.655Z,16.60
2022-08-07T23:53:49.953Z,16.40
2022-08-07T23:56:23.216Z,16.40
2022-08-07T23:59:10.525Z,16.20
